Time;durP1;ratioP1;P1;durP2;ratioP2;P2;SDS_P1;SDS_P2;PMS_P1;PMS_P2;Temp;Humidity;BMP_temperature;BMP_pressure;BME280_temperature;BME280_humidity;BME280_pressure;Samples;Min_cycle;Max_cycle;Signal;HPM_P1;HPM_P2
2022/03/09 00:02:00;;;;;;;52.45;26.88;;;;;;;;;;4994008;28;20436;-65
2022/03/09 00:04:26;;;;;;;48.37;27.73;;;;;;;;;;4993866;28;20178;-66
2022/03/09 00:06:52;;;;;;;50.10;25.80;;;;;;;;;;4993579;28;20536;-65
2022/03/09 00:09:18;;;;;;;42.03;23.80;;;;;;;;;;4993925;28;20508;-65
2022/03/09 00:11:44;;;;;;;41.85;24.27;;;;;;;;;;4993742;28;20178;-65
2022/03/09 00:14:10;;;;;;;43.40;24.87;;;;;;;;;;4995579;28;20186;-66
2022/03/09 00:16:36;;;;;;;40.00;23.77;;;;;;;;;;4996214;28;20464;-65
2022/03/09 00:19:02;;;;;;;43.67;25.63;;;;;;;;;;4978877;28;21011;-65
2022/03/09 00:21:28;;;;;;;39.60;24.17;;;;;;;;;;4996169;28;20469;-65
2022/03/09 00:23:54;;;;;;;45.63;24.10;;;;;;;;;;4996371;28;20410;-66
2022/03/09 00:26:20;;;;;;;43.77;23.83;;;;;;;;;;4996100;28;20883;-66
2022/03/09 00:28:46;;;;;;;35.63;22.13;;;;;;;;;;4996063;28;20414;-69
2022/03/09 00:31:12;;;;;;;39.78;24.00;;;;;;;;;;4996083;28;20413;-66
2022/03/09 00:33:38;;;;;;;40.60;24.33;;;;;;;;;;4995982;28;20265;-66
2022/03/09 00:36:05;;;;;;;37.70;22.05;;;;;;;;;;4996100;28;20465;-66
2022/03/09 00:38:31;;;;;;;43.40;24.45;;;;;;;;;;4995793;28;20179;-65
2022/03/09 00:40:57;;;;;;;36.58;22.35;;;;;;;;;;4995857;28;20563;-65
2022/03/09 00:43:23;;;;;;;36.63;23.37;;;;;;;;;;4995887;28;20169;-65
2022/03/09 00:45:49;;;;;;;34.03;21.65;;;;;;;;;;4995752;28;20401;-65
2022/03/09 00:48:15;;;;;;;42.67;23.63;;;;;;;;;;4995663;28;20555;-65
2022/03/09 00:50:42;;;;;;;39.28;23.45;;;;;;;;;;4995866;28;20175;-65
2022/03/09 00:53:08;;;;;;;39.25;22.15;;;;;;;;;;4995628;28;20180;-65
2022/03/09 00:55:34;;;;;;;36.47;21.40;;;;;;;;;;4995474;28;20571;-65
2022/03/09 00:58:00;;;;;;;36.23;20.20;;;;;;;;;;4995432;28;20460;-65
2022/03/09 01:00:26;;;;;;;34.13;20.30;;;;;;;;;;4995430;28;20416;-65
2022/03/09 01:02:51;;;;;;;30.87;18.90;;;;;;;;;;4978231;28;20416;-65
2022/03/09 01:05:17;;;;;;;31.77;19.20;;;;;;;;;;4995256;28;20514;-65
2022/03/09 01:07:43;;;;;;;29.80;18.33;;;;;;;;;;4995273;28;20827;-66
2022/03/09 01:10:10;;;;;;;32.43;19.57;;;;;;;;;;4995254;28;20414;-65
2022/03/09 01:12:36;;;;;;;31.65;18.70;;;;;;;;;;4995201;28;20875;-65
2022/03/09 01:15:02;;;;;;;28.63;19.45;;;;;;;;;;4995054;28;20194;-64
2022/03/09 01:17:28;;;;;;;30.90;18.60;;;;;;;;;;4995153;28;20186;-66
2022/03/09 01:19:54;;;;;;;27.15;17.48;;;;;;;;;;4995120;28;20904;-65
2022/03/09 01:22:20;;;;;;;26.33;17.77;;;;;;;;;;4995043;28;20174;-65
2022/03/09 01:24:46;;;;;;;28.50;17.08;;;;;;;;;;4994964;28;20509;-66
2022/03/09 01:27:12;;;;;;;26.98;17.65;;;;;;;;;;4994945;28;20257;-66
2022/03/09 01:29:38;;;;;;;27.05;17.77;;;;;;;;;;4977451;28;20265;-65
2022/03/09 01:32:05;;;;;;;24.67;17.17;;;;;;;;;;4994851;28;20178;-65
2022/03/09 01:34:31;;;;;;;34.25;18.13;;;;;;;;;;4994840;28;20249;-66
2022/03/09 01:36:57;;;;;;;27.48;16.75;;;;;;;;;;4994709;28;20237;-66
2022/03/09 01:39:23;;;;;;;34.60;19.70;;;;;;;;;;4977367;28;20182;-65
2022/03/09 01:41:49;;;;;;;28.33;18.55;;;;;;;;;;4994692;28;20178;-65
2022/03/09 01:44:16;;;;;;;29.02;17.55;;;;;;;;;;4994714;28;20626;-65
2022/03/09 01:46:43;;;;;;;26.25;17.20;;;;;;;;;;4977181;28;20179;-65
2022/03/09 01:49:10;;;;;;;26.75;17.67;;;;;;;;;;4994561;28;20637;-66
2022/03/09 01:51:38;;;;;;;25.38;17.73;;;;;;;;;;4994591;28;20174;-65
2022/03/09 01:54:05;;;;;;;25.60;16.42;;;;;;;;;;4977182;28;20174;-65
2022/03/09 01:56:31;;;;;;;23.83;16.73;;;;;;;;;;4994380;28;20213;-66
2022/03/09 01:58:57;;;;;;;24.20;16.83;;;;;;;;;;4994012;28;20159;-66
2022/03/09 02:01:23;;;;;;;28.33;17.80;;;;;;;;;;4994467;28;20170;-65
2022/03/09 02:03:50;;;;;;;28.15;18.35;;;;;;;;;;4994372;28;20224;-65
2022/03/09 02:06:16;;;;;;;25.30;17.52;;;;;;;;;;4994209;28;20236;-66
2022/03/09 02:11:27;;;;;;;29.23;17.13;;;;;;;;;;4994289;28;20407;-65
2022/03/09 02:13:53;;;;;;;26.47;17.00;;;;;;;;;;4976819;28;20186;-65
2022/03/09 02:16:19;;;;;;;25.60;16.30;;;;;;;;;;4994198;28;20477;-65
2022/03/09 02:18:45;;;;;;;29.30;16.50;;;;;;;;;;4994161;28;20406;-66
2022/03/09 02:21:14;;;;;;;22.83;15.63;;;;;;;;;;4976808;28;20924;-66
2022/03/09 02:23:40;;;;;;;20.23;13.32;;;;;;;;;;4994114;28;20433;-65
2022/03/09 02:26:06;;;;;;;21.80;15.00;;;;;;;;;;4994207;28;20703;-65
2022/03/09 02:28:36;;;;;;;20.87;14.60;;;;;;;;;;4994150;28;20428;-65
2022/03/09 02:31:02;;;;;;;21.48;14.02;;;;;;;;;;4976650;28;20426;-65
2022/03/09 02:33:28;;;;;;;23.17;14.90;;;;;;;;;;4994017;28;20714;-65
2022/03/09 02:35:54;;;;;;;26.33;14.90;;;;;;;;;;4993977;28;20473;-65
2022/03/09 02:38:20;;;;;;;20.50;14.30;;;;;;;;;;4993971;28;20456;-65
2022/03/09 02:40:46;;;;;;;24.90;14.97;;;;;;;;;;4993986;28;20417;-65
2022/03/09 02:43:12;;;;;;;20.10;13.77;;;;;;;;;;4993974;28;20909;-65
2022/03/09 02:45:38;;;;;;;21.38;15.48;;;;;;;;;;4994027;28;20174;-65
2022/03/09 02:48:04;;;;;;;19.30;14.33;;;;;;;;;;4993864;28;20192;-65
2022/03/09 02:50:30;;;;;;;19.10;13.50;;;;;;;;;;4976398;28;20429;-65
2022/03/09 02:52:56;;;;;;;20.55;14.00;;;;;;;;;;4993820;28;20496;-65
2022/03/09 02:55:22;;;;;;;22.10;14.40;;;;;;;;;;4993878;28;20202;-65
2022/03/09 02:57:48;;;;;;;23.90;14.63;;;;;;;;;;4994021;28;20476;-65
2022/03/09 03:00:14;;;;;;;21.10;13.32;;;;;;;;;;4993702;28;20797;-65
2022/03/09 03:02:40;;;;;;;17.98;12.82;;;;;;;;;;4993835;28;20685;-65
2022/03/09 03:05:07;;;;;;;21.52;13.77;;;;;;;;;;4993676;28;20201;-65
2022/03/09 03:07:33;;;;;;;21.77;14.13;;;;;;;;;;4993711;28;20174;-65
2022/03/09 03:09:59;;;;;;;20.95;14.60;;;;;;;;;;4994463;28;20175;-65
2022/03/09 03:12:25;;;;;;;20.27;14.10;;;;;;;;;;4997407;28;20262;-65
2022/03/09 03:14:51;;;;;;;20.57;13.97;;;;;;;;;;4997394;28;20421;-65
2022/03/09 03:17:17;;;;;;;24.67;15.20;;;;;;;;;;4997440;28;20421;-65
2022/03/09 03:19:43;;;;;;;16.30;12.30;;;;;;;;;;4997447;28;20401;-65
2022/03/09 03:22:09;;;;;;;22.63;12.27;;;;;;;;;;4997411;28;20504;-65
2022/03/09 03:24:35;;;;;;;23.77;12.73;;;;;;;;;;4997422;28;20408;-65
2022/03/09 03:27:01;;;;;;;19.50;13.70;;;;;;;;;;4997155;28;20781;-65
2022/03/09 03:29:27;;;;;;;17.35;12.77;;;;;;;;;;4997311;28;20500;-65
2022/03/09 03:31:53;;;;;;;19.87;12.73;;;;;;;;;;4997143;28;20253;-65
2022/03/09 03:34:19;;;;;;;19.20;13.40;;;;;;;;;;4997130;28;20404;-65
2022/03/09 03:36:45;;;;;;;27.67;13.65;;;;;;;;;;4979540;28;20583;-66
2022/03/09 03:39:13;;;;;;;17.90;13.40;;;;;;;;;;4997072;28;20198;-65
2022/03/09 03:41:39;;;;;;;17.20;13.30;;;;;;;;;;4996918;28;20425;-65
2022/03/09 03:44:05;;;;;;;26.83;14.17;;;;;;;;;;4996921;28;20170;-66
2022/03/09 03:46:31;;;;;;;17.93;12.90;;;;;;;;;;4996890;28;20410;-66
2022/03/09 03:48:57;;;;;;;20.77;13.82;;;;;;;;;;4996966;28;20410;-66
2022/03/09 03:51:23;;;;;;;18.03;12.20;;;;;;;;;;4996798;28;20708;-65
2022/03/09 03:53:49;;;;;;;34.27;12.57;;;;;;;;;;4996598;28;20532;-65
2022/03/09 03:56:15;;;;;;;14.83;11.80;;;;;;;;;;4996578;28;20481;-65
2022/03/09 03:58:41;;;;;;;15.63;12.07;;;;;;;;;;4996694;28;20405;-65
2022/03/09 04:01:07;;;;;;;21.42;12.30;;;;;;;;;;4996649;28;20410;-65
2022/03/09 04:03:33;;;;;;;16.17;11.38;;;;;;;;;;4996757;28;20170;-66
2022/03/09 04:05:59;;;;;;;18.03;13.00;;;;;;;;;;4978923;28;20577;-66
2022/03/09 04:08:25;;;;;;;16.50;11.77;;;;;;;;;;4996456;28;20445;-65
2022/03/09 04:10:51;;;;;;;18.83;12.20;;;;;;;;;;4996401;28;20414;-65
2022/03/09 04:13:17;;;;;;;16.35;11.52;;;;;;;;;;4996650;28;20421;-65
2022/03/09 04:15:43;;;;;;;14.57;11.43;;;;;;;;;;4978855;28;20207;-64
2022/03/09 04:18:09;;;;;;;17.05;12.95;;;;;;;;;;4996300;28;20166;-65
2022/03/09 04:20:35;;;;;;;12.27;10.97;;;;;;;;;;4995896;28;20225;-65
2022/03/09 04:23:01;;;;;;;17.60;12.25;;;;;;;;;;4996254;28;20402;-65
2022/03/09 04:25:29;;;;;;;21.77;12.38;;;;;;;;;;4996238;28;20177;-65
2022/03/09 04:27:55;;;;;;;18.98;12.52;;;;;;;;;;4996147;28;20182;-65
2022/03/09 04:30:21;;;;;;;15.97;11.70;;;;;;;;;;4996091;28;20251;-65
2022/03/09 04:32:47;;;;;;;15.38;11.10;;;;;;;;;;4996103;28;20409;-65
2022/03/09 04:35:13;;;;;;;17.10;11.63;;;;;;;;;;4995914;28;20214;-66
2022/03/09 04:37:39;;;;;;;17.13;11.57;;;;;;;;;;4996177;28;20406;-65
2022/03/09 04:40:05;;;;;;;14.52;11.60;;;;;;;;;;4995849;28;20229;-65
2022/03/09 04:42:31;;;;;;;17.95;12.05;;;;;;;;;;4995795;28;20189;-65
2022/03/09 04:44:58;;;;;;;16.80;12.18;;;;;;;;;;4995784;28;20175;-64
2022/03/09 04:47:24;;;;;;;17.15;12.35;;;;;;;;;;4995781;28;20186;-65
2022/03/09 04:49:51;;;;;;;22.30;13.20;;;;;;;;;;4995781;28;20183;-64
2022/03/09 04:52:17;;;;;;;25.33;14.60;;;;;;;;;;4995581;28;20653;-65
2022/03/09 04:54:43;;;;;;;19.13;13.32;;;;;;;;;;4978074;28;20206;-65
2022/03/09 04:57:09;;;;;;;22.97;14.77;;;;;;;;;;4995562;28;20637;-64
2022/03/09 04:59:35;;;;;;;21.27;14.23;;;;;;;;;;4995505;28;20809;-65
2022/03/09 05:02:02;;;;;;;22.47;14.17;;;;;;;;;;4995402;28;20425;-66
2022/03/09 05:04:28;;;;;;;23.45;14.15;;;;;;;;;;4995344;28;20476;-65
2022/03/09 05:06:55;;;;;;;18.97;12.80;;;;;;;;;;4995213;28;20686;-65
2022/03/09 05:09:21;;;;;;;19.63;13.73;;;;;;;;;;4995279;28;20489;-65
2022/03/09 05:11:47;;;;;;;22.30;14.23;;;;;;;;;;4995179;28;20202;-64
2022/03/09 05:14:13;;;;;;;19.60;13.77;;;;;;;;;;4995201;28;20410;-65
2022/03/09 05:16:39;;;;;;;22.37;13.77;;;;;;;;;;4995050;28;20960;-64
2022/03/09 05:19:05;;;;;;;21.67;14.13;;;;;;;;;;4995444;28;20453;-65
2022/03/09 05:21:31;;;;;;;20.75;13.45;;;;;;;;;;4995107;28;20618;-65
2022/03/09 05:23:57;;;;;;;19.53;12.67;;;;;;;;;;4994997;28;20178;-64
2022/03/09 05:26:23;;;;;;;20.07;13.70;;;;;;;;;;4977444;28;20425;-65
2022/03/09 05:28:49;;;;;;;18.07;13.50;;;;;;;;;;4994961;28;20872;-65
2022/03/09 05:31:15;;;;;;;19.00;13.77;;;;;;;;;;4994923;28;20770;-65
2022/03/09 05:33:41;;;;;;;17.57;13.20;;;;;;;;;;4994069;28;20456;-65
2022/03/09 05:36:07;;;;;;;20.55;14.77;;;;;;;;;;4994732;28;20563;-65
2022/03/09 05:38:33;;;;;;;20.23;14.20;;;;;;;;;;4994765;28;20254;-65
2022/03/09 05:40:59;;;;;;;24.77;14.00;;;;;;;;;;4977253;28;20549;-65
2022/03/09 05:43:25;;;;;;;24.90;14.63;;;;;;;;;;4994688;28;20469;-65
2022/03/09 05:45:51;;;;;;;24.33;15.82;;;;;;;;;;4994595;28;20428;-65
2022/03/09 05:48:17;;;;;;;17.88;13.70;;;;;;;;;;4994590;28;20227;-65
2022/03/09 05:50:43;;;;;;;25.37;14.60;;;;;;;;;;4994530;28;20186;-64
2022/03/09 05:53:09;;;;;;;19.37;14.03;;;;;;;;;;4994520;28;20410;-64
2022/03/09 05:55:35;;;;;;;20.40;14.20;;;;;;;;;;4994487;28;20829;-65
2022/03/09 05:58:01;;;;;;;27.10;13.90;;;;;;;;;;4994340;28;20178;-65
2022/03/09 06:00:27;;;;;;;25.33;14.93;;;;;;;;;;4994531;28;20406;-64
2022/03/09 06:02:53;;;;;;;23.55;15.80;;;;;;;;;;4994393;28;20893;-65
2022/03/09 06:05:19;;;;;;;25.58;17.10;;;;;;;;;;4994356;28;20198;-65
2022/03/09 06:07:45;;;;;;;28.30;15.52;;;;;;;;;;4994317;28;20179;-65
2022/03/09 06:10:11;;;;;;;26.98;16.63;;;;;;;;;;4994530;28;20258;-64
2022/03/09 06:12:37;;;;;;;33.80;19.55;;;;;;;;;;4994177;28;20197;-64
2022/03/09 06:15:03;;;;;;;37.85;20.50;;;;;;;;;;4994345;28;20206;-65
2022/03/09 06:17:29;;;;;;;40.13;21.20;;;;;;;;;;4993983;28;20174;-64
2022/03/09 06:19:55;;;;;;;36.20;20.50;;;;;;;;;;4993968;28;20189;-64
2022/03/09 06:22:21;;;;;;;46.10;22.08;;;;;;;;;;4994086;28;20186;-64
2022/03/09 06:24:47;;;;;;;70.75;44.65;;;;;;;;;;4994059;28;20171;-64
2022/03/09 06:27:13;;;;;;;41.43;22.70;;;;;;;;;;4994074;28;20188;-65
2022/03/09 06:29:39;;;;;;;40.43;22.97;;;;;;;;;;4993969;28;20402;-65
2022/03/09 06:32:05;;;;;;;29.20;17.80;;;;;;;;;;4993992;28;20406;-65
2022/03/09 06:34:31;;;;;;;38.90;24.98;;;;;;;;;;4993957;28;20167;-65
2022/03/09 06:36:57;;;;;;;30.30;18.67;;;;;;;;;;4993860;28;20209;-65
2022/03/09 06:39:25;;;;;;;38.13;18.60;;;;;;;;;;4993943;28;20476;-65
2022/03/09 06:41:51;;;;;;;32.17;18.50;;;;;;;;;;4976678;28;20512;-65
2022/03/09 06:44:17;;;;;;;30.90;19.27;;;;;;;;;;4995199;28;20229;-65
2022/03/09 06:46:43;;;;;;;27.00;17.17;;;;;;;;;;4997875;28;20964;-64
2022/03/09 06:49:09;;;;;;;33.07;18.53;;;;;;;;;;4997950;28;20251;-65
2022/03/09 06:51:35;;;;;;;28.98;17.55;;;;;;;;;;4997891;28;20464;-64
2022/03/09 06:54:01;;;;;;;26.33;17.00;;;;;;;;;;4998055;28;20167;-66
2022/03/09 06:56:27;;;;;;;25.10;17.83;;;;;;;;;;4997636;28;20621;-66
2022/03/09 06:58:53;;;;;;;29.77;17.37;;;;;;;;;;4997851;28;20174;-66
2022/03/09 07:01:19;;;;;;;28.80;17.52;;;;;;;;;;4997615;28;20765;-66
2022/03/09 07:03:45;;;;;;;25.83;17.70;;;;;;;;;;4997698;28;20170;-66
2022/03/09 07:06:12;;;;;;;31.77;17.93;;;;;;;;;;4997452;28;20469;-67
2022/03/09 07:08:38;;;;;;;107.65;61.28;;;;;;;;;;4997332;28;20394;-65
2022/03/09 07:11:04;;;;;;;38.57;22.40;;;;;;;;;;4997452;28;20187;-68
2022/03/09 07:13:30;;;;;;;28.20;17.53;;;;;;;;;;4997496;28;20904;-66
2022/03/09 07:15:56;;;;;;;29.70;18.00;;;;;;;;;;4997318;28;20615;-67
2022/03/09 07:18:22;;;;;;;26.70;17.65;;;;;;;;;;4997213;28;20412;-66
2022/03/09 07:20:48;;;;;;;28.67;17.83;;;;;;;;;;4997289;28;20171;-69
2022/03/09 07:23:14;;;;;;;30.70;18.10;;;;;;;;;;4997389;28;20908;-67
2022/03/09 07:25:42;;;;;;;25.93;18.27;;;;;;;;;;4997215;28;20167;-68
2022/03/09 07:28:08;;;;;;;37.33;19.50;;;;;;;;;;4997349;28;20599;-67
2022/03/09 07:30:35;;;;;;;34.77;18.73;;;;;;;;;;4997098;28;20253;-67
2022/03/09 07:33:01;;;;;;;30.73;19.90;;;;;;;;;;4996954;28;20952;-67
2022/03/09 07:35:27;;;;;;;30.37;19.70;;;;;;;;;;4997006;28;20202;-68
2022/03/09 07:37:53;;;;;;;28.70;19.30;;;;;;;;;;4996921;28;20420;-67
2022/03/09 07:40:19;;;;;;;31.27;21.10;;;;;;;;;;4996934;28;20175;-65
2022/03/09 07:42:45;;;;;;;103.60;56.05;;;;;;;;;;4996820;28;20991;-65
2022/03/09 07:45:11;;;;;;;47.92;28.38;;;;;;;;;;4996842;28;20579;-65
2022/03/09 07:47:37;;;;;;;43.63;24.88;;;;;;;;;;4996738;28;20185;-66
2022/03/09 07:50:04;;;;;;;40.78;25.35;;;;;;;;;;4996666;28;20637;-64
2022/03/09 07:52:31;;;;;;;39.78;24.23;;;;;;;;;;4996818;28;20610;-66
2022/03/09 07:54:57;;;;;;;31.48;22.10;;;;;;;;;;4996644;28;20254;-66
2022/03/09 07:57:23;;;;;;;37.10;23.43;;;;;;;;;;4995646;28;20220;-66
2022/03/09 07:59:49;;;;;;;36.50;22.00;;;;;;;;;;4996411;28;20409;-65
2022/03/09 08:02:15;;;;;;;38.40;23.27;;;;;;;;;;4979068;28;20992;-67
2022/03/09 08:04:41;;;;;;;33.90;23.43;;;;;;;;;;4996516;28;20434;-69
2022/03/09 08:07:06;;;;;;;35.47;23.37;;;;;;;;;;4996202;28;20461;-66
2022/03/09 08:09:32;;;;;;;36.17;23.97;;;;;;;;;;4996346;28;20825;-66
2022/03/09 08:11:58;;;;;;;38.10;23.03;;;;;;;;;;4996300;28;20413;-66
2022/03/09 08:14:24;;;;;;;36.20;22.40;;;;;;;;;;4996190;28;20410;-66
2022/03/09 08:16:50;;;;;;;35.50;21.73;;;;;;;;;;4996081;28;20575;-67
2022/03/09 08:19:16;;;;;;;35.40;22.75;;;;;;;;;;4979099;28;20425;-68
2022/03/09 08:21:42;;;;;;;34.00;21.67;;;;;;;;;;4996185;28;20246;-67
2022/03/09 08:24:08;;;;;;;34.07;22.10;;;;;;;;;;4996174;28;20885;-66
2022/03/09 08:26:34;;;;;;;35.07;22.00;;;;;;;;;;4996085;28;20453;-66
2022/03/09 08:29:01;;;;;;;33.75;23.15;;;;;;;;;;4996011;28;20426;-66
2022/03/09 08:31:27;;;;;;;31.92;21.52;;;;;;;;;;4996068;28;20642;-66
2022/03/09 08:33:55;;;;;;;33.45;22.00;;;;;;;;;;4978589;28;20560;-66
2022/03/09 08:36:21;;;;;;;32.72;21.48;;;;;;;;;;4996113;28;20206;-66
2022/03/09 08:38:47;;;;;;;33.75;21.83;;;;;;;;;;4996184;28;20170;-67
2022/03/09 08:41:13;;;;;;;37.08;23.23;;;;;;;;;;4995785;28;20186;-66
2022/03/09 08:43:39;;;;;;;33.53;21.43;;;;;;;;;;4995800;28;20217;-66
2022/03/09 08:46:05;;;;;;;33.70;19.80;;;;;;;;;;4995773;28;20484;-67
2022/03/09 08:48:31;;;;;;;26.75;19.83;;;;;;;;;;4996026;28;20402;-67
2022/03/09 08:50:57;;;;;;;30.73;20.90;;;;;;;;;;4995688;28;20178;-68
2022/03/09 08:53:23;;;;;;;32.38;21.85;;;;;;;;;;4995974;28;20472;-67
2022/03/09 08:55:49;;;;;;;31.13;21.13;;;;;;;;;;4995520;28;20217;-66
2022/03/09 08:58:15;;;;;;;34.30;21.30;;;;;;;;;;4995486;28;20564;-68
2022/03/09 09:00:42;;;;;;;40.55;24.33;;;;;;;;;;4995438;28;20428;-66
2022/03/09 09:03:09;;;;;;;31.42;21.40;;;;;;;;;;4995488;28;20618;-67
2022/03/09 09:05:35;;;;;;;29.33;20.30;;;;;;;;;;4995113;28;20226;-66
2022/03/09 09:08:01;;;;;;;30.90;21.23;;;;;;;;;;4994429;28;20177;-66
2022/03/09 09:10:27;;;;;;;32.20;20.80;;;;;;;;;;4995334;28;20402;-66
2022/03/09 09:12:54;;;;;;;30.73;19.95;;;;;;;;;;4995192;28;20178;-66
2022/03/09 09:15:22;;;;;;;33.10;20.35;;;;;;;;;;4995347;28;20211;-66
2022/03/09 09:17:48;;;;;;;30.17;20.77;;;;;;;;;;4995090;28;20179;-67
2022/03/09 09:20:14;;;;;;;32.90;20.13;;;;;;;;;;4995197;28;20456;-67
2022/03/09 09:22:42;;;;;;;34.67;22.40;;;;;;;;;;4995063;28;20513;-66
2022/03/09 09:25:09;;;;;;;32.33;20.80;;;;;;;;;;4995231;28;20406;-67
2022/03/09 09:27:35;;;;;;;26.33;19.60;;;;;;;;;;4994852;28;20441;-68
2022/03/09 09:30:01;;;;;;;27.47;20.07;;;;;;;;;;4994940;28;20395;-67
2022/03/09 09:32:27;;;;;;;25.67;19.17;;;;;;;;;;4995211;28;20814;-66
2022/03/09 09:34:53;;;;;;;28.03;20.20;;;;;;;;;;4994773;28;20402;-67
2022/03/09 09:37:19;;;;;;;29.70;20.63;;;;;;;;;;4994825;28;20436;-67
2022/03/09 09:39:45;;;;;;;34.33;21.20;;;;;;;;;;4994867;28;20402;-67
2022/03/09 09:42:12;;;;;;;25.77;19.17;;;;;;;;;;4994689;28;20377;-69
2022/03/09 09:44:42;;;;;;;28.47;19.90;;;;;;;;;;4994646;28;20752;-68
2022/03/09 09:47:13;;;;;;;24.00;17.87;;;;;;;;;;4994915;28;20398;-67
2022/03/09 09:49:39;;;;;;;26.80;20.10;;;;;;;;;;4994815;28;20402;-67
2022/03/09 09:52:06;;;;;;;29.83;19.10;;;;;;;;;;4994564;28;20426;-65
2022/03/09 09:54:32;;;;;;;28.93;19.20;;;;;;;;;;4994721;28;20444;-66
2022/03/09 09:56:58;;;;;;;31.60;19.23;;;;;;;;;;4994348;28;20609;-66
2022/03/09 09:59:24;;;;;;;22.73;18.63;;;;;;;;;;4994429;28;20404;-67
2022/03/09 10:01:50;;;;;;;29.93;19.30;;;;;;;;;;4994453;28;20418;-65
2022/03/09 10:04:16;;;;;;;23.47;19.07;;;;;;;;;;4994691;28;20414;-65
2022/03/09 10:06:42;;;;;;;33.57;19.93;;;;;;;;;;4994064;28;20847;-67
2022/03/09 10:09:09;;;;;;;27.47;20.57;;;;;;;;;;4994247;28;20510;-71
2022/03/09 10:11:45;;;;;;;29.40;21.53;;;;;;;;;;4994145;28;20421;-70
2022/03/09 10:14:11;;;;;;;28.23;22.23;;;;;;;;;;4994163;28;20452;-70
2022/03/09 10:16:37;;;;;;;28.13;20.53;;;;;;;;;;4994365;28;20465;-67
2022/03/09 10:19:04;;;;;;;27.87;19.03;;;;;;;;;;4993871;28;20431;-70
2022/03/09 10:21:35;;;;;;;23.03;18.90;;;;;;;;;;4994070;28;20897;-70
2022/03/09 10:24:06;;;;;;;27.23;21.23;;;;;;;;;;4994040;28;20417;-70
2022/03/09 10:26:35;;;;;;;26.40;20.37;;;;;;;;;;4994091;28;20413;-71
2022/03/09 10:29:03;;;;;;;27.40;20.57;;;;;;;;;;4994092;28;20410;-69
2022/03/09 10:31:48;;;;;;;24.80;19.60;;;;;;;;;;4994067;28;20410;-70
2022/03/09 10:34:14;;;;;;;31.20;21.20;;;;;;;;;;4994048;28;20895;-68
2022/03/09 10:36:53;;;;;;;24.53;19.10;;;;;;;;;;4994112;28;20475;-71
2022/03/09 10:39:19;;;;;;;26.37;20.23;;;;;;;;;;4993931;28;20527;-68
2022/03/09 10:41:45;;;;;;;26.20;19.87;;;;;;;;;;4993977;28;20413;-69
2022/03/09 10:44:12;;;;;;;23.40;20.10;;;;;;;;;;4993972;28;20450;-69
2022/03/09 10:46:43;;;;;;;22.43;20.07;;;;;;;;;;4993884;28;20999;-70
2022/03/09 10:49:11;;;;;;;24.20;20.37;;;;;;;;;;4994139;28;20431;-70
2022/03/09 10:51:40;;;;;;;21.03;18.63;;;;;;;;;;4994006;28;20438;-67
2022/03/09 10:54:22;;;;;;;23.90;20.13;;;;;;;;;;4993847;28;20949;-71
2022/03/09 10:56:49;;;;;;;24.87;22.27;;;;;;;;;;4993784;28;20539;-68
2022/03/09 10:59:16;;;;;;;26.13;20.53;;;;;;;;;;4993827;28;20901;-80
2022/03/09 11:01:43;;;;;;;25.50;21.67;;;;;;;;;;4976344;28;20917;-74
2022/03/09 11:04:11;;;;;;;23.87;20.33;;;;;;;;;;4993929;28;20466;-77
2022/03/09 11:06:37;;;;;;;24.83;20.47;;;;;;;;;;4993635;28;20971;-76
2022/03/09 11:09:03;;;;;;;23.30;20.80;;;;;;;;;;4993769;28;20456;-77
2022/03/09 11:11:29;;;;;;;23.40;20.83;;;;;;;;;;4993707;28;20446;-76
2022/03/09 11:13:58;;;;;;;29.37;21.90;;;;;;;;;;4976350;28;20486;-79
2022/03/09 11:16:24;;;;;;;28.67;22.70;;;;;;;;;;4993754;28;20471;-80
2022/03/09 11:18:50;;;;;;;26.37;22.40;;;;;;;;;;4993634;28;20403;-76
2022/03/09 11:21:17;;;;;;;24.27;21.60;;;;;;;;;;4993854;28;20446;-75
2022/03/09 11:23:43;;;;;;;24.13;19.70;;;;;;;;;;4993620;28;20547;-77
2022/03/09 11:26:17;;;;;;;23.60;20.83;;;;;;;;;;4993588;28;20423;-76
2022/03/09 11:28:45;;;;;;;24.03;21.60;;;;;;;;;;4993479;28;20398;-77
2022/03/09 11:31:12;;;;;;;24.60;22.00;;;;;;;;;;4994519;28;20462;-78
2022/03/09 11:33:43;;;;;;;27.10;21.13;;;;;;;;;;4997176;28;20676;-76
2022/03/09 11:36:26;;;;;;;24.50;21.83;;;;;;;;;;4997013;28;20466;-76
2022/03/09 11:38:55;;;;;;;28.80;21.50;;;;;;;;;;4997310;28;20472;-80
2022/03/09 11:41:21;;;;;;;24.07;21.47;;;;;;;;;;4997114;28;20431;-77
2022/03/09 11:43:47;;;;;;;24.40;21.43;;;;;;;;;;4979547;28;20897;-80
2022/03/09 11:46:14;;;;;;;27.37;22.60;;;;;;;;;;4997102;28;20428;-79
2022/03/09 11:48:53;;;;;;;26.23;22.07;;;;;;;;;;4996922;28;20745;-71
2022/03/09 11:51:20;;;;;;;28.30;21.40;;;;;;;;;;4997144;28;20421;-73
2022/03/09 11:53:47;;;;;;;25.77;21.80;;;;;;;;;;4996834;28;20412;-72
2022/03/09 11:56:31;;;;;;;24.73;22.10;;;;;;;;;;4996718;28;20480;-72
2022/03/09 11:59:14;;;;;;;24.57;21.10;;;;;;;;;;4996726;28;20400;-72
2022/03/09 12:01:58;;;;;;;25.67;18.70;;;;;;;;;;4996518;28;20505;-72
2022/03/09 12:04:42;;;;;;;23.50;20.80;;;;;;;;;;4996626;28;20398;-71
2022/03/09 12:07:11;;;;;;;24.93;20.23;;;;;;;;;;4996372;28;20471;-72
2022/03/09 12:09:52;;;;;;;22.17;19.67;;;;;;;;;;4996475;28;20418;-71
2022/03/09 12:12:18;;;;;;;25.27;19.93;;;;;;;;;;4996679;28;20815;-72
2022/03/09 12:15:03;;;;;;;23.13;20.60;;;;;;;;;;4996411;28;20404;-75
2022/03/09 12:17:30;;;;;;;23.00;19.60;;;;;;;;;;4996305;28;20426;-75
2022/03/09 12:20:15;;;;;;;22.53;19.70;;;;;;;;;;4996350;28;20407;-75
2022/03/09 12:22:59;;;;;;;21.73;19.33;;;;;;;;;;4996162;28;20443;-74
2022/03/09 12:25:40;;;;;;;19.73;17.70;;;;;;;;;;4996252;28;20417;-74
2022/03/09 12:28:28;;;;;;;21.43;18.53;;;;;;;;;;4996377;28;20428;-74
2022/03/09 12:31:15;;;;;;;21.50;19.20;;;;;;;;;;4996097;28;20403;-75
2022/03/09 12:33:42;;;;;;;21.00;17.67;;;;;;;;;;4996187;28;20776;-74
2022/03/09 12:36:17;;;;;;;24.93;19.57;;;;;;;;;;4995824;28;20911;-75
2022/03/09 12:38:44;;;;;;;22.37;19.97;;;;;;;;;;4995926;28;20459;-73
2022/03/09 12:41:28;;;;;;;20.60;18.37;;;;;;;;;;4995798;28;20882;-75
2022/03/09 12:43:56;;;;;;;19.83;17.70;;;;;;;;;;4995785;28;20431;-76
2022/03/09 12:46:22;;;;;;;20.77;17.27;;;;;;;;;;4995876;28;20850;-73
2022/03/09 12:48:48;;;;;;;19.67;16.60;;;;;;;;;;4995709;28;20402;-71
2022/03/09 12:51:14;;;;;;;16.63;14.97;;;;;;;;;;4995552;28;20404;-78
2022/03/09 12:53:42;;;;;;;19.17;17.23;;;;;;;;;;4995624;28;20445;-77
2022/03/09 12:56:15;;;;;;;21.77;17.47;;;;;;;;;;4995437;28;20509;-76
2022/03/09 12:58:41;;;;;;;20.83;17.50;;;;;;;;;;4995706;28;20818;-76
2022/03/09 13:01:08;;;;;;;20.27;17.23;;;;;;;;;;4995504;28;20409;-76
2022/03/09 13:03:34;;;;;;;23.70;17.27;;;;;;;;;;4995512;28;20445;-82
2022/03/09 13:06:05;;;;;;;21.20;18.47;;;;;;;;;;4995288;28;20491;-76
2022/03/09 13:08:33;;;;;;;24.30;19.63;;;;;;;;;;4995595;28;20417;-76
2022/03/09 13:10:59;;;;;;;30.53;18.90;;;;;;;;;;4995542;28;20769;-78
2022/03/09 13:13:32;;;;;;;26.53;18.80;;;;;;;;;;4995268;28;20832;-77
2022/03/09 13:16:02;;;;;;;21.10;18.37;;;;;;;;;;4995164;28;20470;-77
2022/03/09 13:18:33;;;;;;;22.77;18.90;;;;;;;;;;4977961;28;20859;-77
2022/03/09 13:20:59;;;;;;;27.07;19.40;;;;;;;;;;4994904;28;20571;-78
2022/03/09 13:23:37;;;;;;;22.13;18.13;;;;;;;;;;4995076;28;20409;-77
2022/03/09 13:26:22;;;;;;;24.43;17.80;;;;;;;;;;4995036;28;20741;-78
2022/03/09 13:28:52;;;;;;;23.77;18.03;;;;;;;;;;4994966;28;20413;-78
2022/03/09 13:31:18;;;;;;;23.47;18.27;;;;;;;;;;4977582;28;20424;-78
2022/03/09 13:33:45;;;;;;;21.93;17.97;;;;;;;;;;4994665;28;20918;-73
2022/03/09 13:36:15;;;;;;;31.33;17.00;;;;;;;;;;4994702;28;20482;-72
2022/03/09 13:38:43;;;;;;;24.77;16.80;;;;;;;;;;4977390;28;20456;-75
2022/03/09 13:41:09;;;;;;;24.80;20.13;;;;;;;;;;4994922;28;20411;-73
2022/03/09 13:43:36;;;;;;;25.40;19.80;;;;;;;;;;4994784;28;20771;-73
2022/03/09 13:46:19;;;;;;;25.37;19.27;;;;;;;;;;4994924;28;20411;-71
2022/03/09 13:48:45;;;;;;;36.03;17.90;;;;;;;;;;4994936;28;20752;-72
2022/03/09 13:51:11;;;;;;;32.70;18.90;;;;;;;;;;4994666;28;20479;-73
2022/03/09 13:53:41;;;;;;;23.60;18.20;;;;;;;;;;4976640;28;20468;-74
2022/03/09 13:56:18;;;;;;;26.73;18.40;;;;;;;;;;4994443;28;20554;-72
2022/03/09 13:58:44;;;;;;;22.50;17.80;;;;;;;;;;4994557;28;20420;-75
2022/03/09 14:01:13;;;;;;;27.53;17.50;;;;;;;;;;4994486;28;20400;-74
2022/03/09 14:03:41;;;;;;;23.17;18.13;;;;;;;;;;4994517;28;20411;-74
2022/03/09 14:06:14;;;;;;;20.37;16.67;;;;;;;;;;4994229;28;20467;-76
2022/03/09 14:08:40;;;;;;;22.90;17.43;;;;;;;;;;4994367;28;20403;-73
2022/03/09 14:11:08;;;;;;;25.40;17.27;;;;;;;;;;4994375;28;20894;-73
2022/03/09 14:13:36;;;;;;;22.50;16.87;;;;;;;;;;4994150;28;20408;-76
2022/03/09 14:16:03;;;;;;;26.23;16.37;;;;;;;;;;4994224;28;20474;-76
2022/03/09 14:18:29;;;;;;;23.20;17.00;;;;;;;;;;4994211;28;20411;-79
2022/03/09 14:20:55;;;;;;;26.57;18.43;;;;;;;;;;4994164;28;20751;-74